Orbital elements of TURKSAT 3A
| Launched | 11 June 2008 |
| Flight ended | – |
| Launch site | Europe's Spaceport, Kourou, French Guiana |
| Owner | Turkey |
| NORAD ID | 33056 |
| Date fetched |
Epoch osculation |
Inc. [°] |
Ecc. | RA asc node [hr] |
Arg Peri. [°] |
Mean anom [°] |
Mean motion [rev/day] |
Abs. mag |
| Date fetched |
Epoch osculation |
Inc. [°] |
Ecc. | RA asc node [hr] |
Arg Peri. [°] |
Mean anom [°] |
Mean motion [rev/day] |
Abs. mag |
| 2026 May 01 17:56 | 2026 May 01 11:50:34 | 0.0577 | 0.00053 | 5.0572 | 328.0927 | 35.1733 | 1.00277 | – |
| 2026 Apr 30 17:56 | 2026 Apr 30 11:53:06 | 0.0570 | 0.00053 | 4.9051 | 328.9938 | 35.1733 | 1.00277 | – |
| 2026 Apr 29 17:57 | 2026 Apr 29 05:05:00 | 0.0584 | 0.00052 | 4.6619 | 330.5844 | 35.1733 | 1.00277 | – |
| 2026 Apr 28 17:56 | 2026 Apr 28 05:07:30 | 0.0596 | 0.00052 | 4.5006 | 331.9784 | 35.1733 | 1.00277 | – |
| 2026 Apr 27 17:58 | 2026 Apr 27 04:48:38 | 0.0754 | 0.00051 | 5.2435 | 319.0773 | 35.1733 | 1.00277 | – |
| 2026 Apr 26 17:58 | 2026 Apr 26 12:03:18 | 0.0737 | 0.00051 | 5.2182 | 318.2687 | 35.1733 | 1.00277 | – |
| 2026 Apr 25 17:58 | 2026 Apr 25 12:05:53 | 0.0711 | 0.00050 | 5.1796 | 317.2186 | 35.1733 | 1.00277 | – |
| 2026 Apr 24 17:59 | 2026 Apr 24 12:08:31 | 0.0685 | 0.00050 | 5.1274 | 316.3775 | 35.1733 | 1.00277 | – |
| 2026 Apr 23 17:57 | 2026 Apr 23 04:24:38 | 0.0657 | 0.00049 | 5.0309 | 316.0237 | 35.1733 | 1.00277 | – |
| 2026 Apr 22 17:57 | 2026 Apr 22 03:40:12 | 0.0639 | 0.00049 | 4.9445 | 316.0403 | 35.1733 | 1.00277 | – |
| 2026 Apr 21 17:57 | 2026 Apr 21 12:16:12 | 0.0628 | 0.00049 | 4.8770 | 316.1806 | 35.1733 | 1.00277 | – |
| 2026 Apr 20 17:57 | 2026 Apr 20 12:18:46 | 0.0611 | 0.00049 | 4.7913 | 316.4621 | 35.1733 | 1.00277 | – |
| 2026 Apr 19 17:58 | 2026 Apr 19 12:21:21 | 0.0595 | 0.00049 | 4.6943 | 316.8316 | 35.1733 | 1.00277 | – |
| 2026 Apr 18 17:56 | 2026 Apr 18 05:33:09 | 0.0567 | 0.00050 | 4.5664 | 318.1827 | 35.1733 | 1.00277 | – |
| 2026 Apr 16 17:57 | 2026 Apr 16 01:05:14 | 0.0524 | 0.00054 | 4.2695 | 344.7303 | 35.1733 | 1.00277 | – |
| 2026 Apr 14 17:57 | 2026 Apr 14 10:51:19 | 0.0437 | 0.00054 | 4.1232 | 345.9906 | 35.1733 | 1.00277 | – |
| 2026 Apr 13 17:57 | 2026 Apr 13 05:07:38 | 0.0679 | 0.00054 | 5.0270 | 332.1322 | 35.1733 | 1.00277 | – |
| 2026 Apr 12 17:57 | 2026 Apr 12 10:56:31 | 0.0660 | 0.00054 | 5.0069 | 331.8993 | 35.1733 | 1.00277 | – |
| 2026 Apr 11 17:57 | 2026 Apr 11 10:59:03 | 0.0637 | 0.00054 | 4.9791 | 331.5191 | 35.1733 | 1.00277 | – |
| 2026 Apr 10 17:58 | 2026 Apr 10 02:28:12 | 0.0610 | 0.00054 | 4.9538 | 330.7133 | 35.1733 | 1.00277 | – |
| 2026 Apr 09 18:01 | 2026 Apr 09 04:06:38 | 0.0594 | 0.00054 | 4.9023 | 330.2819 | 35.1733 | 1.00277 | – |
| 2026 Apr 08 17:57 | 2026 Apr 08 00:50:30 | 0.0575 | 0.00049 | 4.8919 | 329.4998 | 35.1733 | 1.00277 | – |
| 2026 Apr 07 17:57 | 2026 Apr 07 04:18:23 | 0.0562 | 0.00053 | 4.7918 | 329.8328 | 35.1733 | 1.00277 | – |
| 2026 Apr 06 17:57 | 2026 Apr 06 04:20:47 | 0.0548 | 0.00052 | 4.8468 | 327.6337 | 35.1733 | 1.00277 | – |
| 2026 Apr 05 17:56 | 2026 Apr 05 05:04:38 | 0.0533 | 0.00052 | 4.7194 | 328.0749 | 35.1733 | 1.00277 | – |
| 2026 Apr 04 17:57 | 2026 Apr 04 04:23:38 | 0.0518 | 0.00050 | 4.7608 | 326.0525 | 35.1733 | 1.00277 | – |